Aviation Digital Data Service (ADDS)

Output produced by TAFs form (1638 UTC 22 July 2017)
found at http://www.aviationweather.gov/adds/tafs/
 
KPSF 221133Z 2212/2312 00000KT P6SM BKN150 
     FM221600 28006KT P6SM SCT140 
     FM222300 32004KT P6SM BKN110 
     FM230700 07004KT P6SM BKN080